CheckWX is a tool to help pilots better visualize weather data.  It is not intended as a substitute for an official pre-flight weather briefing.

15:54:14 UTC

KLJF METAR
Litchfield Municipal Airport
Litchfield, Minnesota, USA
Current

19 mins ago

KLJF 171535Z AUTO 15003KT 10SM CLR 26/19 A2983 RMK AO2
Observed
Aug-17 @ 15:35 UTC
Wind
  • 150° at 3 KTS
Visibility
10 SM
Flight Rules
VFR
Cloud Levels
  • Clear skies
Temperature
26°C / 79°F
Dewpoint
19°C / 66°F
Humidity
65%
Altimeter
29.83" Hg
Pressure
1010.12 hPa
Previous

39 mins ago

KLJF 171515Z AUTO 00000KT 10SM CLR 26/19 A2983 RMK AO2
Observed
Aug-17 @ 15:15 UTC
Visibility
10 SM
Flight Rules
VFR
Cloud Levels
  • Clear skies
Temperature
26°C / 79°F
Dewpoint
19°C / 66°F
Humidity
65%
Altimeter
29.83" Hg
Pressure
1010.12 hPa
Previous

57 mins ago

KLJF 171457Z AUTO 18005KT 10SM CLR 25/18 A2984 RMK AO2
Observed
Aug-17 @ 14:57 UTC
Wind
  • 180° at 5 KTS
Visibility
10 SM
Flight Rules
VFR
Cloud Levels
  • Clear skies
Temperature
25°C / 77°F
Dewpoint
18°C / 64°F
Humidity
65%
Altimeter
29.84" Hg
Pressure
1010.52 hPa